Time;durP1;ratioP1;P1;durP2;ratioP2;P2;SDS_P1;SDS_P2;PMS_P1;PMS_P2;Temp;Humidity;BMP_temperature;BMP_pressure;BME280_temperature;BME280_humidity;BME280_pressure;Samples;Min_cycle;Max_cycle;Signal;HPM_P1;HPM_P2
2021/05/11 00:01:54;;;;;;;6.05;1.52;;;14.10;99.90;;;;;;5037672;28;20414;-68
2021/05/11 00:04:20;;;;;;;2.97;0.65;;;14.10;99.90;;;;;;5036938;28;20025;-66
2021/05/11 00:06:45;;;;;;;4.57;0.70;;;14.10;99.90;;;;;;5035051;28;20417;-66
2021/05/11 00:09:11;;;;;;;2.78;0.60;;;14.10;99.90;;;;;;5035329;28;20084;-67
2021/05/11 00:11:36;;;;;;;15.20;1.73;;;14.20;99.90;;;;;;5036379;28;20037;-66
2021/05/11 00:14:05;;;;;;;6.03;0.85;;;14.10;99.90;;;;;;5034274;28;20052;-67
2021/05/11 00:16:30;;;;;;;5.35;0.80;;;14.10;99.90;;;;;;5041315;28;20024;-67
2021/05/11 00:18:57;;;;;;;6.70;0.80;;;14.10;99.90;;;;;;5037305;28;20044;-67
2021/05/11 00:21:23;;;;;;;9.70;1.15;;;14.20;99.90;;;;;;5040575;28;20628;-67
2021/05/11 00:23:48;;;;;;;4.05;0.98;;;14.10;99.90;;;;;;5044958;28;20037;-67
2021/05/11 00:26:14;;;;;;;7.72;0.90;;;14.10;99.90;;;;;;5047729;28;20034;-67
2021/05/11 00:28:39;;;;;;;4.15;0.80;;;14.10;99.90;;;;;;5037604;28;20112;-66
2021/05/11 00:31:05;;;;;;;12.27;1.65;;;14.20;99.90;;;;;;5030005;28;20044;-67
2021/05/11 00:33:30;;;;;;;7.47;1.00;;;14.20;99.90;;;;;;5037921;28;20033;-66
2021/05/11 00:35:56;;;;;;;7.65;1.58;;;14.10;99.90;;;;;;5033456;28;20408;-66
2021/05/11 00:38:21;;;;;;;6.75;1.35;;;14.10;99.90;;;;;;5043946;28;20037;-66
2021/05/11 00:40:47;;;;;;;11.13;1.17;;;14.10;99.90;;;;;;5034347;28;20555;-66
2021/05/11 00:43:13;;;;;;;3.92;0.60;;;14.10;99.90;;;;;;5025657;28;20037;-67
2021/05/11 00:45:38;;;;;;;5.97;0.80;;;14.10;99.90;;;;;;5035213;28;20123;-66
2021/05/11 00:48:04;;;;;;;5.32;1.08;;;14.10;99.90;;;;;;5033762;28;20041;-67
2021/05/11 00:50:30;;;;;;;7.13;1.10;;;14.10;99.90;;;;;;5039432;28;20147;-67
2021/05/11 00:52:55;;;;;;;7.82;1.77;;;14.00;99.90;;;;;;5037391;28;20092;-66
2021/05/11 00:55:21;;;;;;;9.52;1.08;;;14.00;99.90;;;;;;5040003;28;20401;-67
2021/05/11 00:57:48;;;;;;;5.68;1.10;;;14.10;99.90;;;;;;5037787;28;20376;-67
2021/05/11 01:00:14;;;;;;;5.63;1.08;;;14.10;99.90;;;;;;5039884;28;20398;-67
2021/05/11 01:02:40;;;;;;;4.93;0.80;;;14.10;99.90;;;;;;5038823;28;20060;-67
2021/05/11 01:05:07;;;;;;;8.63;0.98;;;14.10;99.90;;;;;;5038982;28;20038;-67
2021/05/11 01:07:33;;;;;;;5.97;1.48;;;14.10;99.90;;;;;;5039538;28;20521;-66
2021/05/11 01:09:58;;;;;;;5.55;1.42;;;14.10;99.90;;;;;;5037762;28;20144;-67
2021/05/11 01:12:24;;;;;;;4.97;0.90;;;14.10;99.90;;;;;;5040352;28;20116;-67
2021/05/11 01:14:51;;;;;;;4.28;0.90;;;14.10;99.90;;;;;;5041647;28;20033;-67
2021/05/11 01:17:39;;;;;;;4.72;1.42;;;14.00;99.90;;;;;;5034182;28;20479;-67
2021/05/11 01:20:06;;;;;;;6.60;1.20;;;14.00;99.90;;;;;;5038224;28;20484;-67
2021/05/11 01:25:02;;;;;;;6.55;1.42;;;13.90;99.90;;;;;;5038068;28;20029;-67
2021/05/11 01:49:20;;;;;;;4.43;1.13;;;13.90;99.90;;;;;;5037277;28;20056;-67
2021/05/11 02:11:07;;;;;;;3.50;0.75;;;13.60;99.90;;;;;;5039070;28;20048;-68
2021/05/11 02:24:26;;;;;;;4.60;0.85;;;13.50;99.90;;;;;;5001658;28;20041;-66
2021/05/11 02:26:51;;;;;;;6.28;0.80;;;13.40;99.90;;;;;;5038921;28;20040;-66
2021/05/11 02:29:17;;;;;;;6.10;0.77;;;13.40;99.90;;;;;;5035783;28;20442;-66
2021/05/11 02:31:42;;;;;;;6.53;0.90;;;13.30;99.90;;;;;;5038524;28;20494;-68
2021/05/11 02:34:08;;;;;;;2.70;0.77;;;13.30;99.90;;;;;;5036608;28;20080;-67
2021/05/11 02:36:33;;;;;;;7.07;0.95;;;13.30;99.90;;;;;;5042911;28;20478;-67
2021/05/11 02:38:59;;;;;;;3.40;0.63;;;13.20;99.90;;;;;;5038189;28;20041;-67
2021/05/11 02:41:24;;;;;;;3.83;1.25;;;13.10;99.90;;;;;;5038706;28;20032;-67
2021/05/11 02:43:50;;;;;;;4.43;0.73;;;13.10;99.90;;;;;;5035068;28;20029;-67
2021/05/11 02:46:15;;;;;;;4.05;0.98;;;13.10;99.90;;;;;;5036057;28;20037;-67
2021/05/11 02:48:41;;;;;;;8.75;0.90;;;13.10;99.90;;;;;;5037855;28;20033;-68
2021/05/11 02:51:06;;;;;;;3.83;0.77;;;13.10;99.90;;;;;;5036766;28;20036;-67
2021/05/11 02:53:32;;;;;;;6.80;0.90;;;13.00;99.90;;;;;;5027882;28;20071;-67
2021/05/11 02:55:58;;;;;;;4.50;0.80;;;12.90;99.90;;;;;;5037329;28;20041;-67
2021/05/11 02:58:24;;;;;;;3.88;1.00;;;12.80;99.90;;;;;;5035839;28;20076;-67
2021/05/11 03:00:49;;;;;;;8.02;1.30;;;12.70;99.90;;;;;;5038509;28;20051;-66
2021/05/11 03:03:15;;;;;;;5.10;1.33;;;12.70;99.90;;;;;;5026107;28;20452;-67
2021/05/11 03:05:40;;;;;;;5.45;0.93;;;12.70;99.90;;;;;;5039213;28;20029;-67
2021/05/11 03:08:06;;;;;;;6.43;0.77;;;12.60;99.90;;;;;;5036723;28;20055;-67
2021/05/11 03:10:32;;;;;;;5.72;1.20;;;12.60;99.90;;;;;;5037566;28;20061;-66
2021/05/11 03:12:57;;;;;;;8.52;1.50;;;12.60;99.90;;;;;;5038782;28;20033;-67
2021/05/11 03:15:23;;;;;;;10.68;1.42;;;12.60;99.90;;;;;;5038305;28;20148;-66
2021/05/11 03:17:48;;;;;;;5.82;1.13;;;12.50;99.90;;;;;;5042671;28;20116;-66
2021/05/11 03:20:14;;;;;;;9.35;1.10;;;12.50;99.90;;;;;;5040185;28;20079;-67
2021/05/11 03:22:40;;;;;;;4.00;0.80;;;12.40;99.90;;;;;;5039321;28;20044;-67
2021/05/11 03:25:06;;;;;;;8.25;1.55;;;12.40;99.90;;;;;;5053006;28;20039;-68
2021/05/11 03:27:32;;;;;;;5.43;1.52;;;12.40;99.90;;;;;;5055640;28;20041;-67
2021/05/11 03:29:57;;;;;;;7.63;1.23;;;12.40;99.90;;;;;;5051894;28;20037;-68
2021/05/11 03:32:23;;;;;;;15.07;1.40;;;12.40;99.90;;;;;;5039995;28;20398;-67
2021/05/11 03:34:48;;;;;;;6.57;1.65;;;12.40;99.90;;;;;;5035459;28;20029;-66
2021/05/11 03:37:14;;;;;;;7.57;1.27;;;12.40;99.90;;;;;;5044019;28;20402;-67
2021/05/11 03:39:41;;;;;;;2.10;0.70;;;12.40;99.90;;;;;;5034199;28;20029;-67
2021/05/11 03:42:13;;;;;;;5.43;1.05;;;12.30;99.90;;;;;;5037234;28;20025;-67
2021/05/11 03:44:41;;;;;;;4.47;1.23;;;12.30;99.90;;;;;;5034428;28;20040;-66
2021/05/11 03:47:07;;;;;;;9.70;1.42;;;12.30;99.90;;;;;;5037842;28;20037;-67
2021/05/11 03:49:32;;;;;;;6.20;1.42;;;12.20;99.90;;;;;;5034579;28;20517;-67
2021/05/11 03:51:58;;;;;;;6.32;1.15;;;12.20;99.90;;;;;;5036349;28;20032;-67
2021/05/11 03:54:25;;;;;;;4.80;1.00;;;12.20;99.90;;;;;;5036133;28;20036;-67
2021/05/11 03:56:50;;;;;;;5.78;1.70;;;12.20;99.90;;;;;;5035715;28;20021;-67
2021/05/11 03:59:16;;;;;;;7.18;1.50;;;12.20;99.90;;;;;;5041347;28;20494;-67
2021/05/11 04:01:41;;;;;;;7.30;1.40;;;12.20;99.90;;;;;;5033865;28;20036;-67
2021/05/11 04:04:07;;;;;;;8.85;0.95;;;12.20;99.90;;;;;;5037528;28;20025;-66
2021/05/11 04:06:33;;;;;;;5.85;1.10;;;12.20;99.90;;;;;;5035185;28;20033;-67
2021/05/11 04:09:12;;;;;;;14.25;1.40;;;12.20;99.90;;;;;;5034925;28;20025;-67
2021/05/11 04:16:37;;;;;;;5.60;0.93;;;12.30;99.90;;;;;;5045333;28;20175;-67
2021/05/11 04:19:02;;;;;;;6.82;1.92;;;12.30;99.90;;;;;;5042802;28;20094;-66
2021/05/11 04:21:28;;;;;;;6.43;0.90;;;12.30;99.90;;;;;;5040918;28;20029;-66
2021/05/11 04:23:55;;;;;;;4.97;1.13;;;12.30;99.90;;;;;;5024354;28;20479;-67
2021/05/11 04:26:22;;;;;;;7.72;1.05;;;12.30;99.90;;;;;;5036703;28;20816;-67
2021/05/11 04:28:49;;;;;;;2.88;1.00;;;12.40;99.90;;;;;;5038798;28;20067;-67
2021/05/11 04:31:16;;;;;;;6.65;0.90;;;12.40;99.90;;;;;;5036526;28;20032;-67
2021/05/11 04:33:41;;;;;;;6.45;0.80;;;12.40;99.90;;;;;;5034372;28;20078;-66
2021/05/11 04:36:07;;;;;;;10.82;1.20;;;12.40;99.90;;;;;;5025350;28;20382;-67
2021/05/11 04:38:33;;;;;;;4.60;1.30;;;12.50;99.90;;;;;;5035649;28;20455;-66
2021/05/11 04:40:59;;;;;;;4.60;0.80;;;12.50;99.90;;;;;;5030707;28;20036;-66
2021/05/11 04:43:28;;;;;;;10.23;1.15;;;12.60;99.90;;;;;;5035230;28;20034;-67
2021/05/11 04:48:33;;;;;;;6.80;1.35;;;12.60;99.90;;;;;;5035438;28;20039;-67
2021/05/11 04:50:58;;;;;;;6.63;1.10;;;12.70;99.90;;;;;;5034035;28;20032;-67
2021/05/11 04:53:24;;;;;;;8.30;1.27;;;12.70;99.90;;;;;;5033106;28;20029;-67
2021/05/11 04:55:50;;;;;;;5.28;1.27;;;12.80;99.90;;;;;;5034376;28;20171;-67
2021/05/11 04:58:16;;;;;;;8.50;1.52;;;12.80;99.90;;;;;;5032792;28;20036;-66
2021/05/11 05:00:41;;;;;;;9.27;1.17;;;12.90;99.90;;;;;;5041076;28;20049;-66
2021/05/11 05:03:11;;;;;;;6.75;1.65;;;13.00;99.90;;;;;;5040642;28;20037;-67
2021/05/11 05:05:36;;;;;;;7.65;1.58;;;13.10;99.90;;;;;;5042295;28;20032;-66
2021/05/11 05:08:02;;;;;;;7.10;1.20;;;13.10;99.90;;;;;;5021540;28;20040;-66
2021/05/11 05:10:27;;;;;;;8.32;1.50;;;13.20;99.90;;;;;;5021931;28;20044;-66
2021/05/11 05:12:53;;;;;;;12.07;2.17;;;13.10;99.90;;;;;;5039356;28;20120;-67
2021/05/11 05:15:18;;;;;;;6.45;1.85;;;13.20;99.90;;;;;;5039193;28;20136;-67
2021/05/11 05:17:44;;;;;;;9.63;1.27;;;13.30;99.90;;;;;;5038518;28;20552;-66
2021/05/11 05:20:10;;;;;;;6.13;1.25;;;13.30;99.90;;;;;;5044512;28;20101;-66
2021/05/11 05:22:37;;;;;;;8.68;1.05;;;13.30;99.90;;;;;;5040382;28;20565;-67
2021/05/11 05:25:15;;;;;;;7.97;2.13;;;13.40;99.90;;;;;;5039708;28;20450;-66
2021/05/11 05:30:10;;;;;;;5.68;1.45;;;13.50;99.90;;;;;;5043371;28;20037;-66
2021/05/11 05:32:35;;;;;;;4.57;1.02;;;13.60;99.90;;;;;;5040191;28;20493;-66
2021/05/11 05:35:01;;;;;;;8.25;1.20;;;13.70;99.90;;;;;;5042222;28;20059;-67
2021/05/11 05:37:28;;;;;;;4.70;1.25;;;13.80;99.90;;;;;;5046914;28;20072;-66
2021/05/11 05:39:58;;;;;;;4.00;1.05;;;14.00;99.90;;;;;;5042511;28;20053;-67
2021/05/11 05:42:24;;;;;;;7.25;1.75;;;14.00;99.90;;;;;;5046006;28;20029;-67
2021/05/11 05:44:49;;;;;;;7.53;1.45;;;14.10;99.90;;;;;;5049871;28;20571;-66
2021/05/11 05:47:17;;;;;;;9.40;1.60;;;14.30;99.90;;;;;;5025529;28;20125;-66
2021/05/11 05:49:48;;;;;;;6.03;1.45;;;14.40;99.90;;;;;;5043379;28;20039;-66
2021/05/11 05:52:33;;;;;;;5.15;1.42;;;14.50;99.90;;;;;;5046074;28;20041;-67
2021/05/11 05:54:59;;;;;;;8.10;1.60;;;14.70;99.90;;;;;;5040419;28;20040;-70
2021/05/11 05:57:24;;;;;;;5.97;1.20;;;14.80;99.90;;;;;;5044053;28;20041;-68
2021/05/11 05:59:50;;;;;;;5.45;1.30;;;14.90;99.90;;;;;;5047850;28;20037;-66
2021/05/11 06:02:18;;;;;;;6.25;1.65;;;15.00;99.90;;;;;;5047880;28;20055;-69
2021/05/11 06:04:43;;;;;;;5.20;1.50;;;15.20;99.90;;;;;;5044130;28;20197;-67
2021/05/11 06:07:09;;;;;;;6.40;1.70;;;15.30;99.90;;;;;;5045673;28;20033;-67
2021/05/11 06:09:35;;;;;;;11.40;1.95;;;15.50;99.90;;;;;;5047585;28;20037;-66
2021/05/11 06:14:49;;;;;;;18.35;2.60;;;15.90;99.90;;;;;;5050470;28;20037;-68
2021/05/11 06:17:18;;;;;;;9.32;1.77;;;16.30;99.90;;;;;;5046027;28;20124;-70
2021/05/11 06:19:48;;;;;;;9.57;1.90;;;16.50;99.90;;;;;;5027858;28;20036;-68
2021/05/11 06:22:14;;;;;;;7.10;1.40;;;16.90;99.90;;;;;;5042882;28;20029;-68
2021/05/11 06:24:41;;;;;;;13.00;2.03;;;16.90;99.90;;;;;;5044838;28;20033;-70
2021/05/11 06:27:07;;;;;;;4.70;1.52;;;17.00;99.90;;;;;;5044608;28;20149;-69
2021/05/11 06:29:39;;;;;;;8.20;1.65;;;17.00;99.90;;;;;;5027439;28;20347;-67
2021/05/11 06:32:06;;;;;;;5.50;1.65;;;17.10;99.90;;;;;;5043130;28;20037;-66
2021/05/11 06:34:32;;;;;;;6.32;1.70;;;17.30;99.90;;;;;;5047801;28;20037;-67
2021/05/11 06:36:58;;;;;;;8.20;2.45;;;17.20;99.90;;;;;;5026233;28;20040;-66
2021/05/11 06:39:24;;;;;;;7.43;1.70;;;17.40;99.90;;;;;;5046520;28;20041;-68
2021/05/11 06:41:52;;;;;;;9.35;1.67;;;17.60;99.90;;;;;;5030438;28;20045;-66
2021/05/11 06:44:52;;;;;;;7.57;1.88;;;17.50;99.90;;;;;;5042012;28;20052;-66
2021/05/11 06:47:55;;;;;;;6.72;2.42;;;17.40;99.90;;;;;;5044773;28;20377;-66
2021/05/11 06:53:14;;;;;;;10.90;2.63;;;17.30;99.90;;;;;;5010226;28;20089;-68
2021/05/11 06:55:45;;;;;;;8.23;2.40;;;17.50;99.90;;;;;;5044750;28;20494;-67
2021/05/11 06:58:11;;;;;;;9.73;2.05;;;17.60;99.90;;;;;;5044323;28;20095;-68
2021/05/11 07:00:43;;;;;;;7.72;1.88;;;17.90;99.90;;;;;;5045270;28;20037;-67
2021/05/11 07:03:08;;;;;;;10.27;1.60;;;18.00;99.90;;;;;;5046818;28;20257;-67
2021/05/11 07:05:35;;;;;;;7.35;2.33;;;18.00;99.90;;;;;;5042570;28;20401;-70
2021/05/11 07:08:13;;;;;;;11.60;1.60;;;18.20;99.90;;;;;;5044173;28;20043;-69
2021/05/11 07:10:40;;;;;;;7.80;2.10;;;18.10;99.90;;;;;;5044207;28;20033;-70
2021/05/11 07:13:13;;;;;;;12.57;2.92;;;18.10;99.90;;;;;;5045446;28;20122;-67
2021/05/11 07:15:40;;;;;;;9.30;2.30;;;18.30;99.90;;;;;;5052246;28;20032;-66
2021/05/11 07:18:16;;;;;;;13.90;2.28;;;18.30;99.90;;;;;;5040723;28;20463;-68
2021/05/11 07:20:44;;;;;;;6.03;1.88;;;18.30;99.90;;;;;;5044755;28;20035;-68
2021/05/11 07:23:10;;;;;;;13.75;2.20;;;18.40;99.90;;;;;;5041102;28;20037;-67
2021/05/11 07:31:01;;;;;;;8.73;2.13;;;18.60;99.90;;;;;;5045940;28;20052;-69
2021/05/11 07:33:32;;;;;;;11.02;2.95;;;18.80;99.90;;;;;;5039994;28;20215;-66
2021/05/11 07:35:57;;;;;;;;;;;19.10;99.90;;;;;;5043293;28;20471;-68
2021/05/11 07:38:24;;;;;;;7.82;1.88;;;19.20;99.90;;;;;;5038039;28;19917;-67
2021/05/11 07:40:50;;;;;;;6.72;2.08;;;19.30;99.90;;;;;;5045063;28;20474;-67
2021/05/11 07:43:16;;;;;;;7.80;2.45;;;19.20;99.90;;;;;;5044147;28;20061;-69
2021/05/11 07:46:17;;;;;;;5.80;1.90;;;18.90;99.90;;;;;;5041163;28;20037;-67
2021/05/11 07:51:41;;;;;;;11.50;2.25;;;18.40;99.90;;;;;;5046447;28;20033;-69
2021/05/11 08:15:20;;;;;;;9.20;3.25;;;18.60;99.90;;;;;;5042488;28;20079;-70
2021/05/11 08:17:52;;;;;;;7.22;2.17;;;18.50;99.90;;;;;;5041352;28;20041;-68
2021/05/11 08:27:58;;;;;;;12.80;2.22;;;18.40;99.90;;;;;;5039558;28;20594;-69
2021/05/11 08:30:24;;;;;;;5.72;1.90;;;18.60;99.90;;;;;;5042410;28;20067;-67
2021/05/11 08:32:50;;;;;;;4.90;2.08;;;18.70;99.90;;;;;;5042576;28;20571;-66
2021/05/11 08:35:16;;;;;;;7.65;2.60;;;18.80;99.90;;;;;;5041178;28;20048;-67
2021/05/11 08:37:42;;;;;;;7.22;2.65;;;18.80;99.90;;;;;;5045536;28;20029;-67
2021/05/11 08:40:08;;;;;;;6.65;2.33;;;18.90;99.90;;;;;;5042222;28;20045;-69
2021/05/11 08:42:33;;;;;;;7.25;2.35;;;19.00;99.90;;;;;;5043840;28;20081;-69
2021/05/11 08:45:07;;;;;;;7.93;2.38;;;18.80;99.90;;;;;;5042831;28;20486;-70
2021/05/11 08:47:36;;;;;;;9.75;2.28;;;18.70;99.90;;;;;;5038625;28;20103;-67
2021/05/11 08:50:03;;;;;;;7.68;2.13;;;18.60;99.90;;;;;;5021806;28;20057;-68
2021/05/11 09:25:14;;;;;;;11.90;2.65;;;18.80;99.90;;;;;;5042407;28;20109;-68
2021/05/11 09:27:54;;;;;;;9.23;2.33;;;18.80;99.90;;;;;;5044278;28;20035;-69
2021/05/11 09:30:41;;;;;;;11.95;2.38;;;18.80;99.90;;;;;;5043804;28;20545;-68
2021/05/11 09:33:22;;;;;;;9.77;3.50;;;18.80;99.90;;;;;;5040973;28;20138;-68
2021/05/11 10:46:30;;;;;;;11.60;4.10;;;18.70;99.90;;;;;;5038635;28;20097;-67
2021/05/11 10:48:40;;;;;;;7.20;3.75;;;18.80;99.90;;;;;;5037923;28;21567;-68
2021/05/11 10:51:16;;;;;;;8.98;3.92;;;18.90;99.90;;;;;;5045386;28;20060;-69
2021/05/11 10:53:49;;;;;;;8.23;3.45;;;18.70;99.90;;;;;;5048039;28;20081;-68
2021/05/11 10:56:18;;;;;;;11.10;3.72;;;18.60;99.90;;;;;;5041522;28;20766;-71
2021/05/11 10:59:14;;;;;;;9.35;4.10;;;18.60;99.90;;;;;;5040618;28;20049;-67
2021/05/11 11:01:44;;;;;;;12.02;4.45;;;18.60;99.90;;;;;;5038488;28;20056;-67
2021/05/11 11:04:15;;;;;;;15.43;5.18;;;18.70;99.90;;;;;;5042872;28;20049;-67
2021/05/11 11:07:01;;;;;;;17.52;4.65;;;18.90;99.90;;;;;;5039467;28;20033;-68
2021/05/11 11:09:34;;;;;;;11.57;3.42;;;19.20;99.90;;;;;;5036089;28;20151;-67
2021/05/11 11:12:02;;;;;;;11.82;3.63;;;19.50;99.90;;;;;;5038526;28;20091;-67
2021/05/11 11:14:39;;;;;;;7.80;3.40;;;19.60;99.90;;;;;;5023852;28;20128;-67
2021/05/11 11:17:11;;;;;;;12.05;3.95;;;19.70;99.90;;;;;;5040759;28;20098;-69
2021/05/11 11:19:37;;;;;;;7.00;3.05;;;20.00;99.90;;;;;;5036632;28;20118;-68
2021/05/11 11:24:55;;;;;;;7.88;3.33;;;20.30;99.90;;;;;;5040660;28;20128;-67
2021/05/11 11:27:28;;;;;;;8.57;3.08;;;20.50;99.90;;;;;;5024474;28;20037;-67
2021/05/11 11:30:05;;;;;;;4.85;2.63;;;20.60;99.90;;;;;;5036373;28;20033;-67
2021/05/11 11:32:31;;;;;;;8.85;3.03;;;20.70;99.90;;;;;;5037130;28;20036;-66
2021/05/11 11:35:00;;;;;;;6.90;2.92;;;20.70;99.90;;;;;;5042944;28;20051;-67
2021/05/11 11:37:29;;;;;;;6.25;2.42;;;20.90;99.90;;;;;;5041824;28;20036;-70
2021/05/11 11:39:56;;;;;;;6.60;2.13;;;21.10;99.90;;;;;;5020562;28;20486;-68
2021/05/11 11:42:37;;;;;;;9.98;2.63;;;21.00;99.90;;;;;;5040005;28;20163;-68
2021/05/11 11:45:04;;;;;;;7.72;2.97;;;20.90;99.90;;;;;;5042463;28;20582;-68
2021/05/11 11:47:32;;;;;;;7.70;2.67;;;20.80;99.90;;;;;;5023433;28;20035;-65
2021/05/11 11:50:03;;;;;;;7.05;2.47;;;20.70;99.90;;;;;;5040346;28;20037;-65
2021/05/11 11:52:39;;;;;;;7.10;2.80;;;20.20;99.90;;;;;;5038989;28;20039;-68
2021/05/11 11:57:45;;;;;;;7.75;2.85;;;19.90;99.90;;;;;;5040221;28;20168;-65
2021/05/11 12:00:19;;;;;;;7.55;2.70;;;19.80;99.90;;;;;;5042362;28;20047;-70
2021/05/11 12:03:06;;;;;;;9.10;2.00;;;19.70;99.90;;;;;;5040489;28;20068;-67
2021/05/11 12:05:35;;;;;;;12.38;3.30;;;19.40;99.90;;;;;;5018725;28;20033;-69
2021/05/11 12:10:41;;;;;;;10.60;3.70;;;19.10;99.90;;;;;;5038041;28;20041;-67
2021/05/11 12:13:09;;;;;;;10.60;4.32;;;19.00;99.90;;;;;;5037948;28;20299;-69
2021/05/11 12:15:35;;;;;;;11.10;3.97;;;18.90;99.90;;;;;;5021543;28;20744;-67
2021/05/11 12:18:14;;;;;;;13.85;3.92;;;18.70;99.90;;;;;;5037561;28;20040;-68
2021/05/11 12:20:40;;;;;;;6.95;3.05;;;18.70;99.90;;;;;;5041767;28;20385;-67
2021/05/11 12:23:16;;;;;;;9.27;3.58;;;18.60;99.90;;;;;;5041575;28;20565;-69
2021/05/11 12:25:53;;;;;;;10.55;3.70;;;18.40;99.90;;;;;;5038955;28;20063;-64
2021/05/11 12:28:34;;;;;;;10.25;4.00;;;18.40;99.90;;;;;;5037992;28;20202;-65
2021/05/11 12:31:00;;;;;;;11.55;3.83;;;18.40;99.90;;;;;;5040663;28;20413;-66
2021/05/11 12:33:38;;;;;;;11.63;4.20;;;18.40;99.90;;;;;;5038502;28;20025;-67
2021/05/11 12:36:17;;;;;;;9.43;3.53;;;18.40;99.90;;;;;;5040043;28;20056;-68
2021/05/11 12:38:43;;;;;;;11.80;3.60;;;18.50;99.90;;;;;;5037978;28;20435;-69
2021/05/11 12:41:26;;;;;;;7.25;2.97;;;18.50;99.90;;;;;;5037904;28;20140;-68
2021/05/11 12:43:52;;;;;;;6.40;2.40;;;18.60;99.90;;;;;;5039423;28;20033;-68
2021/05/11 12:46:19;;;;;;;10.40;3.20;;;18.70;99.90;;;;;;5038663;28;20057;-67
2021/05/11 12:48:54;;;;;;;12.07;3.33;;;18.70;99.90;;;;;;5040597;28;20040;-68
2021/05/11 12:51:26;;;;;;;10.90;3.05;;;18.70;99.90;;;;;;5039273;28;20041;-68
2021/05/11 12:53:54;;;;;;;7.85;3.05;;;18.80;99.90;;;;;;5037737;28;20037;-66
2021/05/11 12:56:31;;;;;;;12.50;3.90;;;18.90;99.90;;;;;;5019199;28;20040;-67
2021/05/11 12:59:07;;;;;;;11.85;3.63;;;18.90;99.90;;;;;;5038101;28;20083;-69
2021/05/11 13:23:11;;;;;;;5.40;1.70;;;19.20;99.90;;;;;;5036612;28;20470;-69
2021/05/11 13:25:47;;;;;;;8.32;1.45;;;19.20;99.90;;;;;;5023393;28;20063;-66
2021/05/11 13:28:31;;;;;;;8.23;1.83;;;19.20;99.90;;;;;;5039748;28;20115;-68
2021/05/11 13:36:12;;;;;;;3.67;0.70;;;19.20;99.90;;;;;;5036251;28;20040;-66
2021/05/11 13:38:37;;;;;;;3.55;1.00;;;19.20;99.90;;;;;;5037927;28;20411;-69
2021/05/11 13:41:03;;;;;;;5.20;0.70;;;19.20;99.90;;;;;;5035433;28;20044;-67
2021/05/11 13:43:31;;;;;;;5.85;1.10;;;19.20;99.90;;;;;;5038068;28;20045;-68
2021/05/11 13:45:57;;;;;;;5.18;1.02;;;19.10;99.90;;;;;;5034714;28;20398;-69
2021/05/11 13:48:26;;;;;;;6.35;1.30;;;19.00;99.90;;;;;;5041795;28;20055;-67
2021/05/11 13:50:59;;;;;;;5.45;1.17;;;19.00;99.90;;;;;;5040485;28;20036;-69
2021/05/11 13:53:25;;;;;;;6.70;1.40;;;18.90;99.90;;;;;;5034468;28;20079;-69
2021/05/11 13:56:12;;;;;;;4.18;1.73;;;18.90;99.90;;;;;;5040388;28;20052;-67
2021/05/11 14:04:07;;;;;;;3.50;0.82;;;18.70;99.90;;;;;;5040175;28;20215;-69
2021/05/11 14:06:33;;;;;;;2.50;0.80;;;18.70;99.90;;;;;;5042256;28;20124;-68
2021/05/11 14:08:59;;;;;;;7.00;2.35;;;18.60;99.90;;;;;;5043500;28;20622;-66
2021/05/11 14:11:25;;;;;;;4.68;0.70;;;18.60;99.90;;;;;;5040284;28;20160;-70
2021/05/11 14:13:50;;;;;;;2.80;0.63;;;18.50;99.90;;;;;;5042926;28;20044;-66
2021/05/11 14:16:19;;;;;;;3.67;0.57;;;18.50;99.90;;;;;;5044707;28;20067;-67
2021/05/11 14:18:45;;;;;;;3.15;0.88;;;18.50;99.90;;;;;;5038568;28;20498;-69
2021/05/11 14:21:10;;;;;;;6.68;0.80;;;18.50;99.90;;;;;;5040163;28;20045;-66
2021/05/11 14:23:36;;;;;;;7.75;1.15;;;18.50;99.90;;;;;;5038349;28;20553;-68
2021/05/11 14:26:02;;;;;;;4.05;0.88;;;18.50;99.90;;;;;;5043391;28;20476;-67
2021/05/11 14:28:28;;;;;;;1.67;0.68;;;18.50;99.90;;;;;;5042304;28;20462;-66
2021/05/11 14:30:53;;;;;;;4.55;0.85;;;18.60;99.90;;;;;;5044282;28;20063;-66
2021/05/11 14:33:19;;;;;;;2.88;0.60;;;18.60;99.90;;;;;;5043713;28;20041;-65
2021/05/11 14:35:45;;;;;;;3.50;0.77;;;18.60;99.90;;;;;;5041656;28;20032;-67
2021/05/11 14:38:10;;;;;;;0.95;0.50;;;18.70;99.90;;;;;;5040456;28;20437;-66
2021/05/11 14:40:36;;;;;;;6.15;0.70;;;18.70;99.90;;;;;;5048524;28;20120;-67
2021/05/11 14:43:02;;;;;;;5.50;1.00;;;18.80;99.90;;;;;;5028957;28;20062;-68
2021/05/11 14:45:27;;;;;;;9.50;1.17;;;18.90;99.90;;;;;;5041376;28;20079;-68
2021/05/11 14:47:56;;;;;;;4.45;1.00;;;18.90;99.90;;;;;;5047303;28;20542;-68
2021/05/11 14:50:23;;;;;;;6.32;0.85;;;19.00;99.90;;;;;;5045874;28;20090;-68
2021/05/11 14:52:53;;;;;;;4.97;0.98;;;19.00;99.90;;;;;;5042136;28;20422;-68
2021/05/11 14:55:23;;;;;;;2.58;0.60;;;19.10;99.90;;;;;;5027545;28;20033;-66
2021/05/11 14:57:50;;;;;;;5.55;0.90;;;19.20;99.90;;;;;;5043355;28;20056;-67
2021/05/11 15:00:15;;;;;;;3.05;0.70;;;19.30;99.90;;;;;;5039918;28;20037;-66
2021/05/11 15:02:41;;;;;;;2.83;0.70;;;19.40;99.90;;;;;;5039412;28;20029;-69
2021/05/11 15:05:07;;;;;;;2.95;1.20;;;19.40;99.90;;;;;;5044571;28;20041;-67
2021/05/11 15:07:33;;;;;;;6.65;1.95;;;19.40;99.90;;;;;;5019568;28;20471;-68
2021/05/11 15:09:59;;;;;;;6.00;1.55;;;19.40;99.90;;;;;;5043393;28;20555;-69
2021/05/11 15:12:25;;;;;;;6.82;2.05;;;19.40;99.90;;;;;;5037422;28;20087;-69
2021/05/11 15:14:50;;;;;;;7.97;2.25;;;19.40;99.90;;;;;;5038475;28;20048;-68
2021/05/11 15:19:56;;;;;;;6.68;1.95;;;19.30;99.90;;;;;;5040666;28;20040;-68
2021/05/11 15:22:22;;;;;;;5.88;1.88;;;19.30;99.90;;;;;;5036574;28;20092;-69
2021/05/11 15:24:49;;;;;;;6.57;1.55;;;19.00;99.90;;;;;;5035059;28;20033;-69
2021/05/11 15:27:15;;;;;;;6.57;1.60;;;19.10;99.90;;;;;;5025977;28;20037;-67
2021/05/11 15:29:41;;;;;;;5.40;1.77;;;19.20;99.90;;;;;;5035587;28;20036;-66
2021/05/11 15:32:47;;;;;;;9.30;1.52;;;19.30;99.90;;;;;;5036452;28;20051;-66
2021/05/11 15:35:15;;;;;;;3.33;1.75;;;19.40;99.90;;;;;;5040143;28;20025;-69
2021/05/11 15:37:41;;;;;;;5.88;1.77;;;19.50;99.90;;;;;;5019880;28;20041;-64
2021/05/11 15:40:15;;;;;;;4.28;1.63;;;19.50;99.90;;;;;;5021965;28;20043;-65
2021/05/11 15:42:41;;;;;;;9.30;2.60;;;19.40;99.90;;;;;;5042779;28;20033;-69
2021/05/11 15:45:09;;;;;;;6.78;1.92;;;19.40;99.90;;;;;;5018989;28;20043;-68
2021/05/11 15:47:37;;;;;;;7.05;3.22;;;19.20;99.90;;;;;;5039059;28;20036;-66
2021/05/11 15:50:04;;;;;;;7.28;2.72;;;19.20;99.90;;;;;;5037678;28;20491;-68
2021/05/11 15:52:30;;;;;;;6.60;2.97;;;19.20;99.90;;;;;;5028390;28;20044;-68
2021/05/11 15:54:56;;;;;;;9.55;2.90;;;19.20;99.90;;;;;;5028285;28;20026;-68
2021/05/11 15:57:21;;;;;;;7.63;2.97;;;19.00;99.90;;;;;;5030498;28;20033;-68
2021/05/11 15:59:47;;;;;;;11.25;2.70;;;18.80;99.90;;;;;;5031888;28;20183;-69
2021/05/11 16:02:12;;;;;;;6.20;2.70;;;18.70;99.90;;;;;;5031894;28;20033;-68
2021/05/11 16:04:38;;;;;;;7.95;2.90;;;18.60;99.90;;;;;;5030263;28;20037;-68
2021/05/11 16:07:04;;;;;;;7.35;2.63;;;18.50;99.90;;;;;;5027217;28;20033;-64
2021/05/11 16:09:30;;;;;;;10.73;2.90;;;18.50;99.90;;;;;;5041350;28;20413;-68
2021/05/11 16:11:55;;;;;;;10.52;2.75;;;18.50;99.90;;;;;;5043059;28;20444;-71
2021/05/11 16:14:21;;;;;;;6.97;2.65;;;18.50;99.90;;;;;;5039732;28;20417;-69
2021/05/11 16:16:47;;;;;;;7.53;2.15;;;18.50;99.90;;;;;;5037271;28;20409;-65
2021/05/11 16:19:12;;;;;;;8.40;3.03;;;18.50;99.90;;;;;;5038971;28;20040;-69
2021/05/11 16:21:38;;;;;;;6.97;2.63;;;18.50;99.90;;;;;;5031176;28;20045;-69
2021/05/11 16:24:04;;;;;;;5.65;2.22;;;18.50;99.90;;;;;;5026649;28;20041;-68
2021/05/11 16:26:30;;;;;;;5.93;2.38;;;18.50;99.90;;;;;;5035557;28;20043;-68
2021/05/11 16:28:56;;;;;;;7.78;2.70;;;18.50;99.90;;;;;;5039742;28;20033;-68
2021/05/11 16:31:23;;;;;;;6.00;2.22;;;18.50;99.90;;;;;;5033838;28;20785;-68
2021/05/11 16:33:49;;;;;;;7.30;2.28;;;18.40;99.90;;;;;;5037070;28;20043;-68
2021/05/11 16:36:15;;;;;;;6.63;2.45;;;18.40;99.90;;;;;;5037630;28;20602;-68
2021/05/11 16:38:41;;;;;;;5.70;2.58;;;18.30;99.90;;;;;;5038579;28;20056;-68
2021/05/11 16:41:07;;;;;;;3.03;0.85;;;18.20;99.90;;;;;;5037822;28;20041;-66
2021/05/11 16:43:33;;;;;;;2.95;0.60;;;18.00;99.90;;;;;;5037592;28;20040;-67
2021/05/11 16:46:02;;;;;;;1.98;0.50;;;17.60;99.90;;;;;;5041434;28;20060;-67
2021/05/11 16:48:29;;;;;;;3.22;0.57;;;17.20;99.90;;;;;;5037610;28;20118;-67
2021/05/11 16:50:54;;;;;;;2.35;0.70;;;16.90;99.90;;;;;;5041272;28;20039;-67
2021/05/11 16:53:20;;;;;;;1.50;0.47;;;16.50;99.90;;;;;;5042844;28;20667;-67
2021/05/11 16:55:46;;;;;;;3.42;0.40;;;16.40;99.90;;;;;;5024701;28;20067;-67
2021/05/11 16:58:12;;;;;;;3.90;0.90;;;16.10;99.90;;;;;;5035961;28;20031;-67
2021/05/11 17:00:39;;;;;;;3.95;1.02;;;15.90;99.90;;;;;;5036676;28;20791;-67
2021/05/11 17:03:05;;;;;;;1.90;0.90;;;15.80;99.90;;;;;;5039615;28;20103;-68
2021/05/11 17:05:31;;;;;;;7.13;1.45;;;15.60;99.90;;;;;;5039218;28;20025;-69